Time;durP1;ratioP1;P1;durP2;ratioP2;P2;SDS_P1;SDS_P2;PMS_P1;PMS_P2;Temp;Humidity;BMP_temperature;BMP_pressure;BME280_temperature;BME280_humidity;BME280_pressure;Samples;Min_cycle;Max_cycle;Signal;HPM_P1;HPM_P2
2024/02/29 00:01:12;;;;;;;32.17;13.18;;;;;;;29.31;68.78;101017.75;5050935;28;70189;-31
2024/02/29 00:03:42;;;;;;;33.83;14.02;;;;;;;29.34;68.52;101017.34;5054559;28;66660;-30
2024/02/29 00:06:13;;;;;;;29.85;13.90;;;;;;;29.38;68.94;101023.97;5043339;28;70385;-31
2024/02/29 00:08:44;;;;;;;36.70;14.77;;;;;;;29.37;69.10;101030.44;5048232;28;65791;-32
2024/02/29 00:11:14;;;;;;;36.42;18.73;;;;;;;29.40;67.47;101038.13;5043111;28;70374;-30
2024/02/29 00:13:45;;;;;;;36.75;21.05;;;;;;;29.42;68.44;101045.19;5057152;28;66834;-30
2024/02/29 00:16:17;;;;;;;32.80;19.27;;;;;;;29.45;67.23;101048.31;5043630;28;70577;-38
2024/02/29 00:18:47;;;;;;;37.78;19.58;;;;;;;29.43;68.06;101044.16;5052029;28;66443;-31
2024/02/29 00:21:19;;;;;;;34.42;17.88;;;;;;;29.43;67.90;101041.47;5067213;28;70350;-31
2024/02/29 00:23:49;;;;;;;31.77;16.65;;;;;;;29.51;68.00;101049.38;5048990;28;65287;-33
2024/02/29 00:26:20;;;;;;;29.45;15.95;;;;;;;29.51;68.43;101057.47;5044833;28;70255;-31
2024/02/29 00:28:51;;;;;;;29.48;14.38;;;;;;;29.54;68.91;101059.75;5049791;28;66213;-33
2024/02/29 00:31:24;;;;;;;23.13;13.40;;;;;;;29.56;68.74;101061.22;5049572;28;69397;-31
2024/02/29 00:33:55;;;;;;;26.35;14.63;;;;;;;29.59;68.76;101062.69;5050893;28;66402;-32
2024/02/29 00:36:25;;;;;;;21.85;12.77;;;;;;;29.58;68.73;101071.81;5050331;28;69339;-30
2024/02/29 00:38:56;;;;;;;14.25;11.63;;;;;;;29.58;68.66;101059.13;5048333;28;66249;-30
2024/02/29 00:41:40;;;;;;;22.70;12.60;;;;;;;29.64;69.37;101076.41;5048944;28;70238;-33
2024/02/29 00:44:11;;;;;;;19.30;11.27;;;;;;;29.61;69.36;101061.44;5056882;28;65328;-31
2024/02/29 00:46:41;;;;;;;18.65;10.90;;;;;;;29.73;67.78;101072.50;5057933;28;70345;-32
2024/02/29 00:49:13;;;;;;;15.13;10.68;;;;;;;29.57;67.60;101043.97;5056976;28;67284;-31
2024/02/29 00:51:45;;;;;;;16.33;10.63;;;;;;;29.78;68.01;101077.25;5072310;28;69353;-32
2024/02/29 00:54:16;;;;;;;16.10;10.98;;;;;;;29.80;67.30;101080.59;5042134;28;65934;-31
2024/02/29 00:56:46;;;;;;;14.40;10.57;;;;;;;29.82;67.20;101073.94;5059043;28;70495;-31
2024/02/29 00:59:17;;;;;;;12.73;10.73;;;;;;;29.84;67.23;101074.56;5057877;28;65863;-33
2024/02/29 01:01:48;;;;;;;14.82;10.30;;;;;;;29.87;67.47;101076.03;5051300;28;70283;-32
2024/02/29 01:04:19;;;;;;;12.02;9.88;;;;;;;29.88;67.24;101074.97;5051676;28;66197;-30
2024/02/29 01:06:49;;;;;;;17.52;10.13;;;;;;;29.90;66.71;101080.19;5054641;28;70288;-31
2024/02/29 01:09:25;;;;;;;13.30;9.80;;;;;;;29.90;67.07;101077.47;5054000;28;67150;-32
2024/02/29 01:11:56;;;;;;;13.57;9.38;;;;;;;29.91;67.08;101076.44;5047874;28;70386;-33
2024/02/29 01:14:27;;;;;;;13.63;10.20;;;;;;;29.92;66.59;101086.19;5046167;28;66704;-31
2024/02/29 01:16:57;;;;;;;16.10;9.68;;;;;;;29.94;66.36;101076.84;5043706;28;70711;-31
2024/02/29 01:19:28;;;;;;;11.77;8.85;;;;;;;29.96;66.30;101085.56;5056487;28;66060;-32
2024/02/29 01:22:01;;;;;;;12.95;9.30;;;;;;;29.97;66.30;101081.81;5048890;28;71692;-30
2024/02/29 01:24:33;;;;;;;11.88;9.05;;;;;;;29.98;66.38;101085.38;5056899;28;66380;-31
2024/02/29 01:27:04;;;;;;;10.60;8.98;;;;;;;29.99;66.41;101084.31;5050934;28;70103;-30
2024/02/29 01:29:35;;;;;;;17.95;9.23;;;;;;;30.03;66.05;101091.81;5025251;28;67579;-34
2024/02/29 01:32:06;;;;;;;18.23;9.40;;;;;;;30.06;66.08;101087.84;5049662;28;69256;-31
2024/02/29 01:34:51;;;;;;;11.45;8.77;;;;;;;30.08;65.77;101093.88;5046594;28;66546;-30
2024/02/29 01:37:22;;;;;;;9.75;8.75;;;;;;;29.90;66.26;101069.38;5043437;28;70365;-30
2024/02/29 01:39:52;;;;;;;10.52;8.52;;;;;;;30.10;65.76;101096.38;5046522;28;66438;-31
2024/02/29 01:42:23;;;;;;;12.13;8.20;;;;;;;30.14;65.86;101103.84;5041786;28;70959;-31
2024/02/29 01:44:56;;;;;;;10.43;8.07;;;;;;;30.16;66.01;101118.00;5043133;28;65521;-31
2024/02/29 01:47:27;;;;;;;12.75;8.80;;;;;;;30.16;66.15;101123.44;5057611;28;69909;-30
2024/02/29 01:50:05;;;;;;;9.20;8.40;;;;;;;30.21;65.81;101118.22;5043404;28;66035;-33
2024/02/29 01:52:40;;;;;;;8.77;7.97;;;;;;;30.23;65.91;101121.59;5046252;28;70720;-32
2024/02/29 01:55:11;;;;;;;8.52;7.40;;;;;;;30.26;65.80;101123.88;5039654;28;65250;-31
2024/02/29 01:57:42;;;;;;;9.75;8.30;;;;;;;30.28;65.81;101132.63;5041217;28;70165;-33
2024/02/29 02:00:14;;;;;;;8.00;7.35;;;;;;;30.31;66.20;101131.34;5041623;28;65896;-33
2024/02/29 02:02:45;;;;;;;10.27;7.53;;;;;;;30.34;66.19;101135.50;5051185;28;70280;-32
2024/02/29 02:05:15;;;;;;;10.53;8.00;;;;;;;30.36;65.74;101138.84;5041710;28;66373;-32
2024/02/29 02:07:48;;;;;;;9.20;7.22;;;;;;;30.40;65.53;101131.97;5048080;28;69813;-30
2024/02/29 02:10:19;;;;;;;9.05;7.70;;;;;;;30.43;65.76;101129.66;5064646;28;65210;-32
2024/02/29 02:12:49;;;;;;;9.57;7.18;;;;;;;30.45;65.20;101137.56;5045411;28;69449;-31
2024/02/29 02:15:20;;;;;;;9.85;7.55;;;;;;;30.28;65.58;101099.28;5049341;28;66525;-31
2024/02/29 02:17:51;;;;;;;8.40;7.37;;;;;;;30.48;65.59;101126.34;5042068;28;70629;-31
2024/02/29 02:20:22;;;;;;;8.20;7.40;;;;;;;30.53;65.69;101134.63;5051947;28;66578;-31
2024/02/29 02:22:54;;;;;;;10.10;7.15;;;;;;;30.55;65.28;101121.72;5051661;28;70634;-31
2024/02/29 02:25:25;;;;;;;;;;;;;;;30.47;65.66;101130.91;5054624;28;65754;-32
2024/02/29 02:27:55;;;;;;;7.35;6.70;;;;;;;30.57;65.24;101121.53;5053931;27;70791;-32
2024/02/29 02:30:26;;;;;;;9.38;7.15;;;;;;;30.58;64.89;101121.28;5054486;28;65829;-30
2024/02/29 02:32:57;;;;;;;8.68;7.45;;;;;;;30.59;64.65;101117.56;5045708;28;70124;-32
2024/02/29 02:35:27;;;;;;;7.85;7.18;;;;;;;30.69;65.34;101127.94;5055361;28;66377;-34
2024/02/29 02:37:58;;;;;;;9.35;7.00;;;;;;;30.71;65.26;101129.38;5051238;28;70582;-35
2024/02/29 02:40:29;;;;;;;7.57;6.97;;;;;;;30.76;64.69;101125.19;5054259;28;66721;-35
2024/02/29 02:43:01;;;;;;;12.90;7.90;;;;;;;30.75;64.86;101124.38;5050905;28;69387;-31
2024/02/29 02:45:31;;;;;;;9.63;7.55;;;;;;;30.81;64.99;101130.84;5050337;28;65175;-37
2024/02/29 02:48:02;;;;;;;7.45;6.47;;;;;;;30.85;64.78;101126.66;5054406;28;70299;-32
2024/02/29 02:50:33;;;;;;;7.25;6.55;;;;;;;30.87;64.62;101124.56;5042449;28;65737;-32
2024/02/29 02:53:04;;;;;;;7.47;6.88;;;;;;;30.89;64.39;101114.34;5046585;28;70733;-32
2024/02/29 02:55:35;;;;;;;7.50;6.90;;;;;;;30.92;64.48;101122.03;5047939;28;66044;-31
2024/02/29 02:58:05;;;;;;;6.20;5.75;;;;;;;30.96;64.70;101115.16;5055766;28;69310;-31
2024/02/29 03:00:36;;;;;;;7.28;6.72;;;;;;;31.01;64.39;101119.91;5054771;28;65729;-32
2024/02/29 03:03:08;;;;;;;8.40;7.47;;;;;;;31.03;64.54;101112.41;5056297;28;70224;-33
2024/02/29 03:05:39;;;;;;;8.75;7.03;;;;;;;31.07;64.01;101109.06;5055757;28;65918;-33
2024/02/29 03:08:10;;;;;;;6.90;6.40;;;;;;;31.12;64.61;101111.97;5052880;28;69741;-34
2024/02/29 03:10:40;;;;;;;8.55;6.30;;;;;;;31.15;64.46;101100.69;5061223;28;65561;-36
2024/02/29 03:13:12;;;;;;;8.83;7.20;;;;;;;31.19;64.16;101106.50;5053049;28;69965;-34
2024/02/29 03:15:42;;;;;;;11.23;7.38;;;;;;;31.23;63.84;101104.16;5048985;28;66500;-32
2024/02/29 03:18:13;;;;;;;7.35;6.57;;;;;;;31.21;64.45;101098.16;5054757;28;70514;-32
2024/02/29 03:20:44;;;;;;;6.68;6.13;;;;;;;31.30;63.76;101096.84;5051532;28;65269;-32
2024/02/29 03:23:15;;;;;;;8.95;6.93;;;;;;;31.32;64.04;101106.41;5045589;28;71486;-36
2024/02/29 03:25:46;;;;;;;7.22;6.13;;;;;;;31.36;63.67;101090.56;5052537;28;66734;-35
2024/02/29 03:28:16;;;;;;;7.32;6.63;;;;;;;31.41;63.59;101090.75;5049127;28;69422;-33
2024/02/29 03:30:47;;;;;;;7.40;6.55;;;;;;;31.43;63.93;101088.66;5052801;28;66402;-32
2024/02/29 03:33:18;;;;;;;7.00;6.50;;;;;;;31.45;63.77;101089.25;5060872;28;70688;-32
2024/02/29 03:35:48;;;;;;;6.95;6.45;;;;;;;31.50;63.20;101086.72;5067810;28;66128;-36
2024/02/29 03:38:19;;;;;;;8.90;6.65;;;;;;;31.50;63.59;101072.34;5047407;28;70180;-32
2024/02/29 03:40:51;;;;;;;7.35;6.80;;;;;;;31.56;63.51;101074.16;5048072;28;66118;-33
2024/02/29 03:43:22;;;;;;;7.45;6.78;;;;;;;31.53;63.21;101069.19;5059301;28;70667;-35
2024/02/29 03:45:52;;;;;;;6.97;6.30;;;;;;;31.61;63.12;101072.44;5052231;28;65738;-32
2024/02/29 03:48:23;;;;;;;7.13;6.15;;;;;;;31.53;63.29;101059.16;5064203;28;70416;-34
2024/02/29 03:50:54;;;;;;;6.63;6.13;;;;;;;31.67;63.25;101067.19;5056293;28;66182;-32
2024/02/29 03:53:24;;;;;;;7.43;6.72;;;;;;;31.68;63.01;101060.72;5060498;28;70284;-31
2024/02/29 03:55:55;;;;;;;6.85;6.15;;;;;;;31.69;63.13;101052.38;5053006;28;66443;-33
2024/02/29 03:58:25;;;;;;;7.30;6.63;;;;;;;31.80;63.01;101053.53;5051878;28;68862;-32
2024/02/29 04:00:56;;;;;;;6.88;5.95;;;;;;;31.84;63.03;101052.00;5053724;28;66003;-31
2024/02/29 04:03:27;;;;;;;6.25;5.75;;;;;;;31.86;63.28;101051.81;5054825;28;70157;-32
2024/02/29 04:05:57;;;;;;;6.78;6.13;;;;;;;31.89;62.92;101044.03;5043807;28;66065;-32
2024/02/29 04:08:28;;;;;;;7.15;5.68;;;;;;;31.91;63.08;101039.25;5044073;28;70274;-32
2024/02/29 04:10:59;;;;;;;6.38;5.88;;;;;;;31.93;63.15;101036.31;5048763;28;65817;-33
2024/02/29 04:13:31;;;;;;;6.82;6.22;;;;;;;31.96;63.12;101036.72;5048494;28;70222;-33
2024/02/29 04:16:02;;;;;;;6.53;6.03;;;;;;;31.98;62.59;101034.63;5042372;28;66795;-33
2024/02/29 04:18:33;;;;;;;6.25;5.80;;;;;;;31.95;62.68;101017.94;5041817;28;70444;-35
2024/02/29 04:21:04;;;;;;;6.70;6.10;;;;;;;32.04;62.95;101028.28;5046291;28;66851;-33
2024/02/29 04:23:35;;;;;;;6.45;5.90;;;;;;;32.04;62.87;101025.56;5050173;28;70849;-31
2024/02/29 04:26:06;;;;;;;7.05;6.45;;;;;;;32.09;62.90;101029.47;5043405;28;65146;-32
2024/02/29 04:28:37;;;;;;;7.13;6.53;;;;;;;32.12;62.74;101012.75;5052936;28;70629;-33
2024/02/29 04:31:08;;;;;;;6.15;5.55;;;;;;;32.15;62.69;101012.28;5048004;28;65578;-32
2024/02/29 04:33:40;;;;;;;6.15;5.65;;;;;;;32.11;62.66;101001.06;5055935;28;69798;-32
2024/02/29 04:36:11;;;;;;;6.53;6.13;;;;;;;32.21;62.66;101012.22;5045904;28;65532;-32
2024/02/29 04:38:41;;;;;;;7.10;5.45;;;;;;;32.23;62.65;100999.28;5058211;28;69889;-32
2024/02/29 04:41:12;;;;;;;6.50;5.95;;;;;;;32.27;62.57;101003.19;5051128;28;67118;-32
2024/02/29 04:43:43;;;;;;;5.75;5.30;;;;;;;32.30;62.46;100993.75;5044531;28;70664;-33
2024/02/29 04:46:13;;;;;;;5.90;5.38;;;;;;;32.33;62.68;100993.28;5040878;28;66139;-32
2024/02/29 04:48:44;;;;;;;6.63;5.85;;;;;;;32.35;62.31;100988.47;5045275;28;70526;-33
2024/02/29 04:51:15;;;;;;;6.60;5.75;;;;;;;32.40;62.16;100983.19;5053735;28;66824;-33
2024/02/29 04:53:45;;;;;;;7.85;5.70;;;;;;;32.39;62.16;100975.25;5046644;28;70208;-31
2024/02/29 04:56:16;;;;;;;5.97;5.40;;;;;;;32.45;62.10;100969.72;5057905;28;66501;-34
2024/02/29 04:58:47;;;;;;;5.70;5.20;;;;;;;32.43;62.34;100961.00;5054084;28;69717;-31
2024/02/29 05:01:18;;;;;;;7.93;5.90;;;;;;;32.47;62.12;100951.38;5059335;28;65120;-32
2024/02/29 05:03:49;;;;;;;6.60;5.72;;;;;;;32.47;62.17;100954.06;5057730;28;70238;-33
2024/02/29 05:06:20;;;;;;;6.15;5.65;;;;;;;32.53;62.04;100948.78;5059730;28;66526;-33
2024/02/29 05:08:51;;;;;;;6.35;5.75;;;;;;;32.58;61.96;100952.47;5046556;28;70006;-32
2024/02/29 05:11:21;;;;;;;12.57;5.57;;;;;;;32.52;61.96;100925.44;5056204;28;66236;-32
2024/02/29 05:13:52;;;;;;;5.88;5.32;;;;;;;32.62;61.73;100947.41;5054126;28;70288;-33
2024/02/29 05:16:23;;;;;;;5.70;5.30;;;;;;;32.64;61.74;100934.44;5048069;28;65730;-33
2024/02/29 05:18:53;;;;;;;6.90;6.20;;;;;;;32.66;61.61;100932.31;5048217;28;70684;-31
2024/02/29 05:21:27;;;;;;;8.32;5.50;;;;;;;32.69;61.93;100926.41;5045350;28;65834;-32
2024/02/29 05:23:58;;;;;;;5.82;5.40;;;;;;;32.70;61.61;100922.63;5043473;28;69180;-31
2024/02/29 05:26:29;;;;;;;5.68;5.18;;;;;;;32.70;61.77;100906.34;5052592;28;66487;-32
2024/02/29 05:28:59;;;;;;;5.45;5.03;;;;;;;32.78;61.74;100905.19;5045771;28;69409;-32
2024/02/29 05:31:30;;;;;;;5.82;5.40;;;;;;;32.82;61.53;100901.78;5053704;28;66847;-33
2024/02/29 05:34:01;;;;;;;6.22;5.75;;;;;;;32.81;61.73;100897.38;5059886;28;69854;-34
2024/02/29 05:36:32;;;;;;;5.78;5.22;;;;;;;32.84;61.55;100890.66;5053285;28;66291;-32
2024/02/29 05:39:04;;;;;;;5.05;4.63;;;;;;;32.68;61.54;100851.41;5040348;28;70109;-31
2024/02/29 05:41:35;;;;;;;6.38;5.40;;;;;;;32.87;61.56;100874.72;5041170;28;66597;-31
2024/02/29 05:44:05;;;;;;;5.70;5.20;;;;;;;32.91;61.50;100862.31;5041379;28;70050;-32
2024/02/29 05:46:36;;;;;;;5.40;5.00;;;;;;;32.94;61.45;100861.03;5040912;28;65933;-32
2024/02/29 05:49:07;;;;;;;6.68;5.40;;;;;;;32.96;61.36;100858.91;5044372;28;69818;-32
2024/02/29 05:51:37;;;;;;;5.50;5.10;;;;;;;32.99;61.51;100846.72;5042763;28;65731;-32
2024/02/29 05:54:08;;;;;;;5.28;4.97;;;;;;;33.01;61.35;100847.34;5058490;28;70264;-31
2024/02/29 05:56:39;;;;;;;5.53;5.05;;;;;;;33.05;61.26;100841.22;5064314;28;65923;-32
2024/02/29 05:59:11;;;;;;;5.32;4.93;;;;;;;33.04;60.89;100825.13;5044068;28;70185;-33
2024/02/29 06:01:43;;;;;;;5.53;5.03;;;;;;;33.10;61.22;100835.09;5050918;28;66045;-32
2024/02/29 06:04:13;;;;;;;5.50;5.00;;;;;;;33.12;61.43;100827.50;5056162;28;69833;-32
2024/02/29 06:06:44;;;;;;;5.30;4.80;;;;;;;33.15;61.18;100827.03;5058901;28;66091;-32
2024/02/29 06:09:15;;;;;;;5.60;5.20;;;;;;;33.20;61.07;100819.00;5055606;28;70799;-32
2024/02/29 06:11:45;;;;;;;5.57;5.18;;;;;;;33.25;60.81;100810.94;5057606;28;66686;-32
2024/02/29 06:14:17;;;;;;;6.10;5.47;;;;;;;33.26;61.29;100812.59;5057468;28;70156;-33
2024/02/29 06:16:47;;;;;;;5.40;5.00;;;;;;;33.26;61.09;100801.72;5046907;28;65309;-32
2024/02/29 06:19:18;;;;;;;8.05;4.57;;;;;;;33.28;60.96;100793.34;5057614;28;70149;-32
2024/02/29 06:21:49;;;;;;;5.85;5.32;;;;;;;33.33;60.81;100791.56;5045228;28;65683;-32
2024/02/29 06:24:20;;;;;;;5.63;5.22;;;;;;;33.37;60.72;100791.91;5053067;28;70191;-33
2024/02/29 06:26:50;;;;;;;5.43;5.05;;;;;;;33.42;60.65;100791.19;5064715;28;66013;-32
2024/02/29 06:29:22;;;;;;;6.07;5.43;;;;;;;33.41;60.65;100790.38;5049344;28;69969;-31
2024/02/29 06:31:52;;;;;;;5.57;5.07;;;;;;;33.33;60.70;100769.81;5053243;28;66289;-31
2024/02/29 06:34:24;;;;;;;5.63;5.13;;;;;;;33.43;60.36;100762.91;5041965;28;69557;-33
2024/02/29 06:36:54;;;;;;;5.78;4.93;;;;;;;33.47;60.44;100769.53;5046323;28;66388;-32
2024/02/29 06:39:25;;;;;;;5.20;4.80;;;;;;;33.52;60.57;100769.66;5057492;28;71194;-32
2024/02/29 06:41:56;;;;;;;5.85;5.07;;;;;;;33.55;60.49;100767.31;5057183;28;66608;-32
2024/02/29 06:44:27;;;;;;;6.38;4.78;;;;;;;33.56;60.48;100757.25;5041706;28;69468;-32
2024/02/29 06:46:58;;;;;;;7.47;4.85;;;;;;;33.64;60.25;100754.13;5058308;28;65999;-32
2024/02/29 06:49:29;;;;;;;6.72;4.60;;;;;;;33.66;60.44;100749.28;5043760;28;70303;-33
2024/02/29 06:51:59;;;;;;;8.07;5.00;;;;;;;33.69;60.28;100750.69;5039370;28;65734;-32
2024/02/29 06:54:30;;;;;;;5.47;5.00;;;;;;;33.66;60.13;100746.56;5037404;28;69594;-31
2024/02/29 06:57:00;;;;;;;6.60;4.97;;;;;;;33.70;60.12;100731.41;5040161;28;66363;-32
2024/02/29 06:59:31;;;;;;;5.87;4.93;;;;;;;33.74;60.33;100727.16;5046084;28;70183;-33
2024/02/29 07:02:01;;;;;;;5.75;4.82;;;;;;;33.77;60.46;100737.53;5051049;28;65766;-33
2024/02/29 07:04:32;;;;;;;5.63;5.10;;;;;;;33.80;60.47;100745.22;5049370;28;69929;-32
2024/02/29 07:07:04;;;;;;;5.90;5.50;;;;;;;33.83;60.66;100721.31;5050033;28;65965;-32
2024/02/29 07:09:34;;;;;;;;;;;;;;;33.73;60.31;100733.63;5058917;28;70007;-32
2024/02/29 07:12:05;;;;;;;5.35;4.88;;;;;;;33.89;60.43;100731.22;5052280;28;66292;-32
2024/02/29 07:14:35;;;;;;;5.00;4.53;;;;;;;33.92;60.52;100730.72;5047391;28;70214;-32
2024/02/29 07:17:06;;;;;;;5.20;4.80;;;;;;;33.96;60.32;100726.41;5051538;28;66194;-32
2024/02/29 07:19:38;;;;;;;4.73;4.43;;;;;;;33.99;60.28;100725.94;5054773;28;69950;-32
2024/02/29 07:22:08;;;;;;;6.68;5.20;;;;;;;34.03;60.34;100718.94;5057228;27;65731;-32
2024/02/29 07:24:40;;;;;;;6.35;4.55;;;;;;;34.03;60.27;100710.78;5055750;28;69806;-32
2024/02/29 07:27:10;;;;;;;5.32;4.90;;;;;;;34.06;60.59;100707.59;5049910;28;65698;-33
2024/02/29 07:29:41;;;;;;;4.97;4.57;;;;;;;34.11;60.31;100710.41;5061426;28;70305;-32
2024/02/29 07:32:11;;;;;;;6.57;4.90;;;;;;;34.15;60.58;100700.66;5053381;28;66629;-33
2024/02/29 07:34:42;;;;;;;5.80;5.20;;;;;;;34.16;60.59;100702.31;5045553;28;70630;-33
2024/02/29 07:37:13;;;;;;;5.70;5.00;;;;;;;34.23;60.55;100702.16;5053931;27;66281;-32
2024/02/29 07:39:44;;;;;;;4.97;4.57;;;;;;;34.23;60.46;100691.25;5054673;28;69312;-32
2024/02/29 07:42:14;;;;;;;5.70;5.05;;;;;;;34.27;60.45;100681.53;5057084;28;66597;-32
2024/02/29 07:44:45;;;;;;;4.50;4.15;;;;;;;34.29;60.04;100684.00;5056554;28;71803;-31
2024/02/29 07:47:16;;;;;;;10.82;4.53;;;;;;;34.36;60.20;100690.94;5061304;28;66099;-32
2024/02/29 07:49:46;;;;;;;10.67;4.90;;;;;;;34.39;60.34;100689.59;5052143;28;69488;-32
2024/02/29 07:52:17;;;;;;;4.72;4.32;;;;;;;34.32;59.89;100678.06;5065775;28;66098;-33
2024/02/29 07:54:49;;;;;;;4.65;4.25;;;;;;;34.48;60.57;100682.66;5042000;28;70300;-32
2024/02/29 07:57:20;;;;;;;5.35;4.30;;;;;;;34.52;60.52;100683.81;5042659;28;67097;-33
2024/02/29 07:59:50;;;;;;;5.28;4.53;;;;;;;34.54;60.07;100691.72;5055262;28;69971;-32
2024/02/29 08:02:21;;;;;;;6.90;4.33;;;;;;;34.56;60.45;100687.72;5059663;28;66474;-35
2024/02/29 08:04:53;;;;;;;9.10;4.45;;;;;;;34.63;60.33;100684.81;5047145;28;70519;-34
2024/02/29 08:07:23;;;;;;;4.30;3.90;;;;;;;34.62;60.06;100673.09;5049704;28;66299;-32
2024/02/29 08:09:54;;;;;;;5.07;4.57;;;;;;;34.68;60.50;100677.53;5044652;28;70001;-33
2024/02/29 08:12:25;;;;;;;4.78;4.28;;;;;;;34.73;60.21;100675.97;5052197;28;66266;-32
2024/02/29 08:14:57;;;;;;;7.90;4.65;;;;;;;34.79;60.06;100677.66;5064194;27;70937;-32
2024/02/29 08:17:28;;;;;;;10.60;4.00;;;;;;;34.84;60.29;100680.47;5047724;28;66079;-33
2024/02/29 08:19:59;;;;;;;5.03;4.20;;;;;;;34.86;60.09;100672.88;5060190;28;70288;-32
2024/02/29 08:22:29;;;;;;;4.50;4.10;;;;;;;34.92;60.03;100672.69;5047546;28;66705;-33
2024/02/29 08:25:01;;;;;;;8.63;4.20;;;;;;;34.93;60.31;100670.78;5056124;28;69902;-32
2024/02/29 08:27:32;;;;;;;4.53;4.13;;;;;;;34.89;60.24;100656.00;5057323;28;66400;-34
2024/02/29 08:30:04;;;;;;;7.20;4.43;;;;;;;35.04;60.48;100669.81;5055512;28;70840;-32
2024/02/29 08:32:34;;;;;;;;;;;;;;;34.98;59.76;100665.38;5054117;28;66275;-34
2024/02/29 08:35:07;;;;;;;5.95;4.32;;;;;;;35.17;59.84;100673.28;5060977;28;70147;-32
2024/02/29 08:37:38;;;;;;;5.55;4.15;;;;;;;35.22;59.85;100670.63;5059190;28;65567;-32
2024/02/29 08:40:09;;;;;;;4.83;3.63;;;;;;;35.25;59.79;100665.47;5048990;28;69914;-31
2024/02/29 08:42:39;;;;;;;6.65;3.88;;;;;;;35.32;59.84;100665.25;5054128;28;67264;-32
2024/02/29 08:45:11;;;;;;;6.03;4.27;;;;;;;35.34;59.95;100668.56;5049212;28;70510;-33
2024/02/29 08:47:42;;;;;;;4.50;3.70;;;;;;;35.40;60.15;100666.72;5057868;28;66537;-33
2024/02/29 08:50:13;;;;;;;5.10;3.90;;;;;;;35.45;59.59;100664.06;5060118;28;70430;-33
2024/02/29 08:52:43;;;;;;;7.43;4.20;;;;;;;35.51;60.04;100671.19;5042202;28;65881;-35
2024/02/29 08:55:14;;;;;;;4.53;3.93;;;;;;;35.56;59.99;100665.84;5049992;28;69988;-33
2024/02/29 08:57:45;;;;;;;4.63;3.70;;;;;;;35.62;59.61;100669.44;5052956;28;66323;-34
2024/02/29 09:00:16;;;;;;;5.17;3.63;;;;;;;35.68;59.85;100665.66;5052831;28;69528;-34
2024/02/29 09:02:47;;;;;;;4.38;3.97;;;;;;;35.70;59.58;100663.50;5053511;28;65560;-34
2024/02/29 09:05:18;;;;;;;8.53;4.20;;;;;;;35.78;59.35;100669.31;5066110;28;70529;-34
2024/02/29 09:07:49;;;;;;;5.53;4.03;;;;;;;35.84;59.25;100662.00;5056465;28;66581;-33
2024/02/29 09:10:20;;;;;;;6.03;4.22;;;;;;;35.88;59.69;100670.47;5043925;28;69998;-33
2024/02/29 09:12:54;;;;;;;4.47;3.80;;;;;;;35.93;59.76;100674.06;5048948;28;66333;-35
2024/02/29 09:15:26;;;;;;;4.40;3.97;;;;;;;35.97;59.35;100677.94;5048782;28;70476;-36
2024/02/29 09:17:56;;;;;;;7.05;3.80;;;;;;;36.03;59.03;100687.81;5066843;28;65075;-35
2024/02/29 09:20:27;;;;;;;6.75;4.75;;;;;;;36.03;59.80;100687.81;5046483;28;70660;-32
2024/02/29 09:22:58;;;;;;;11.60;4.17;;;;;;;36.08;60.07;100686.22;5054263;28;66394;-32
2024/02/29 09:25:29;;;;;;;10.13;5.45;;;;;;;36.07;59.85;100681.88;5057683;28;69714;-34
2024/02/29 09:28:00;;;;;;;8.43;4.27;;;;;;;36.07;60.33;100692.78;5051587;28;66077;-32
2024/02/29 09:30:30;;;;;;;14.07;4.68;;;;;;;36.07;59.58;100681.88;5042802;28;70378;-33
2024/02/29 09:33:01;;;;;;;11.20;5.15;;;;;;;36.13;59.71;100689.00;5045014;28;65691;-31
2024/02/29 09:35:32;;;;;;;16.70;5.05;;;;;;;36.19;59.95;100696.16;5044888;28;70396;-33
2024/02/29 09:38:04;;;;;;;7.03;4.90;;;;;;;36.20;59.77;100697.81;5050074;28;66658;-32
2024/02/29 09:40:35;;;;;;;9.23;5.07;;;;;;;36.23;59.64;100702.75;5051501;28;70192;-32
2024/02/29 09:43:19;;;;;;;5.88;5.15;;;;;;;36.18;60.07;100705.44;5057256;28;66378;-33
2024/02/29 09:45:51;;;;;;;9.18;4.25;;;;;;;36.09;59.63;100685.16;5058443;28;70178;-33
2024/02/29 09:48:23;;;;;;;15.43;5.30;;;;;;;36.23;59.54;100713.69;5046369;28;65061;-33
2024/02/29 09:50:55;;;;;;;7.38;4.75;;;;;;;36.28;60.17;100711.00;5044098;28;71626;-32
2024/02/29 09:53:27;;;;;;;13.63;4.85;;;;;;;36.20;60.10;100700.53;5041214;28;66552;-33
2024/02/29 09:55:59;;;;;;;16.00;5.38;;;;;;;36.31;60.08;100710.47;5044470;28;70652;-32
2024/02/29 09:58:31;;;;;;;;;;;;;;;36.23;60.20;100724.59;5043086;28;66963;-33
2024/02/29 10:01:01;;;;;;;14.40;4.85;;;;;;;36.31;59.63;100728.75;5044071;28;68951;-33
2024/02/29 10:03:32;;;;;;;12.75;5.53;;;;;;;36.39;59.36;100722.81;5046581;28;64947;-33
2024/02/29 10:06:04;;;;;;;15.60;5.32;;;;;;;36.37;59.71;100730.44;5048901;28;70071;-32
2024/02/29 10:08:35;;;;;;;7.93;5.95;;;;;;;36.33;59.81;100726.56;5052769;28;65231;-32
2024/02/29 10:11:09;;;;;;;18.58;5.18;;;;;;;36.29;59.89;100720.81;5048409;28;70298;-32
2024/02/29 10:13:41;;;;;;;12.52;6.03;;;;;;;36.35;59.98;100732.59;5050512;28;65552;-31
2024/02/29 10:16:13;;;;;;;15.40;5.60;;;;;;;36.18;59.67;100699.97;5047111;28;69645;-35
2024/02/29 10:18:44;;;;;;;12.77;5.63;;;;;;;36.29;60.23;100729.00;5047012;28;66788;-37
2024/02/29 10:21:15;;;;;;;9.83;6.00;;;;;;;36.34;59.73;100725.50;5046838;28;69608;-32
2024/02/29 10:23:45;;;;;;;7.07;6.17;;;;;;;36.29;60.10;100729.00;5047341;28;66590;-33
2024/02/29 10:26:18;;;;;;;11.35;5.60;;;;;;;36.15;60.08;100700.50;5058181;28;69268;-32
2024/02/29 10:28:49;;;;;;;6.80;5.15;;;;;;;36.21;60.12;100726.75;5049923;28;65943;-33
2024/02/29 10:31:20;;;;;;;9.35;5.93;;;;;;;36.23;59.77;100743.72;5051931;28;69358;-33
2024/02/29 10:33:51;;;;;;;8.07;5.50;;;;;;;36.18;59.67;100743.66;5056979;28;65912;-32
2024/02/29 10:36:23;;;;;;;8.18;5.28;;;;;;;36.19;60.28;100750.75;5054965;28;70642;-34
2024/02/29 10:38:55;;;;;;;5.68;5.18;;;;;;;36.16;60.07;100743.94;5047112;28;66553;-32
2024/02/29 10:41:31;;;;;;;11.63;5.25;;;;;;;36.10;60.42;100746.88;5055133;28;70494;-32
2024/02/29 10:44:03;;;;;;;11.88;5.90;;;;;;;36.15;59.71;100750.47;5055255;28;66660;-33
2024/02/29 10:46:39;;;;;;;6.38;5.78;;;;;;;36.03;60.33;100753.34;5052667;28;70772;-32
2024/02/29 10:49:20;;;;;;;7.43;5.78;;;;;;;36.08;59.89;100752.59;5056365;28;66185;-32
2024/02/29 10:51:58;;;;;;;10.68;5.93;;;;;;;36.02;59.93;100759.91;5051257;28;69308;-33
2024/02/29 10:54:55;;;;;;;17.02;7.10;;;;;;;35.91;60.70;100749.13;5055799;28;66157;-32
2024/02/29 10:57:33;;;;;;;10.13;5.68;;;;;;;35.78;60.31;100731.25;5056989;28;70329;-34
2024/02/29 11:00:05;;;;;;;11.32;5.97;;;;;;;35.95;60.34;100756.53;5055686;28;66326;-35
2024/02/29 11:02:36;;;;;;;;;;;;;;;35.90;60.74;100761.94;5052768;28;70065;-31
2024/02/29 11:05:08;;;;;;;11.55;6.55;;;;;;;35.89;60.30;100764.94;5055434;28;65472;-33
2024/02/29 11:07:39;;;;;;;13.38;6.07;;;;;;;35.84;60.92;100773.91;5053169;27;70693;-33
2024/02/29 11:10:10;;;;;;;8.60;6.18;;;;;;;35.82;61.10;100773.31;5055154;28;66674;-33
2024/02/29 11:12:44;;;;;;;9.05;5.68;;;;;;;35.75;61.11;100772.72;5044538;28;70196;-32
2024/02/29 11:15:24;;;;;;;8.82;5.30;;;;;;;35.69;61.06;100776.44;5044027;28;66175;-32
2024/02/29 11:17:55;;;;;;;6.68;5.93;;;;;;;35.68;61.12;100777.53;5052924;28;69415;-32
2024/02/29 11:20:27;;;;;;;10.70;5.93;;;;;;;35.71;61.63;100782.47;5053842;28;66195;-34
2024/02/29 11:23:06;;;;;;;18.52;5.90;;;;;;;35.70;61.62;100791.75;5042861;28;70853;-36
2024/02/29 11:25:43;;;;;;;12.90;6.20;;;;;;;35.63;61.73;100791.13;5046654;28;65724;-34
2024/02/29 11:28:16;;;;;;;12.07;6.45;;;;;;;35.57;61.89;100799.22;5055195;28;70312;-32
2024/02/29 11:30:51;;;;;;;9.32;5.38;;;;;;;35.53;62.03;100802.72;5050671;28;66285;-33
2024/02/29 11:33:33;;;;;;;12.10;5.40;;;;;;;35.46;62.06;100808.34;5052841;28;69970;-32
2024/02/29 11:36:05;;;;;;;10.52;5.80;;;;;;;35.40;62.23;100814.00;5058481;28;66284;-32
2024/02/29 11:38:36;;;;;;;7.20;6.50;;;;;;;35.32;62.17;100813.34;5050088;28;70210;-32
2024/02/29 11:41:15;;;;;;;13.93;6.20;;;;;;;35.33;62.06;100819.66;5048283;28;66189;-33
2024/02/29 11:43:49;;;;;;;8.65;6.05;;;;;;;35.29;62.27;100830.22;5051343;28;69389;-33